createdAt,value
2022-08-08T00:01:21.112Z,4.00
2022-08-08T00:04:53.184Z,6.50
2022-08-08T00:07:36.043Z,5.50
2022-08-08T00:10:17.455Z,5.25
2022-08-08T00:13:02.581Z,6.00
2022-08-08T00:15:56.910Z,5.00
2022-08-08T00:18:39.720Z,5.00
2022-08-08T00:21:16.498Z,4.00
2022-08-08T00:23:51.326Z,5.50
2022-08-08T00:26:32.258Z,5.25
2022-08-08T00:29:45.654Z,5.25
2022-08-08T00:32:35.683Z,5.25
2022-08-08T00:35:22.648Z,5.00
2022-08-08T00:38:16.833Z,4.75
2022-08-08T00:41:21.907Z,5.25
2022-08-08T00:44:10.080Z,5.25
2022-08-08T00:47:19.605Z,6.25
2022-08-08T00:50:29.178Z,4.25
2022-08-08T00:53:24.294Z,5.00
2022-08-08T00:56:30.140Z,4.00
2022-08-08T00:59:43.163Z,5.50
2022-08-08T01:03:59.799Z,5.00
2022-08-08T01:05:58.564Z,6.25
2022-08-08T01:08:51.991Z,5.00
2022-08-08T01:11:21.745Z,5.25
2022-08-08T01:14:53.149Z,6.00
2022-08-08T01:17:51.604Z,5.00
2022-08-08T01:20:39.305Z,5.00
2022-08-08T01:24:05.509Z,4.00
2022-08-08T01:26:49.121Z,4.25
2022-08-08T01:29:59.470Z,4.25
2022-08-08T01:33:16.180Z,5.00
2022-08-08T01:36:28.477Z,4.50
2022-08-08T01:39:06.064Z,5.00
2022-08-08T01:41:55.253Z,5.00
2022-08-08T01:45:10.090Z,6.00
2022-08-08T01:48:15.089Z,4.25
2022-08-08T01:50:48.985Z,4.00
2022-08-08T01:55:45.149Z,5.00
2022-08-08T01:57:01.294Z,5.50
2022-08-08T02:00:01.837Z,5.00
2022-08-08T02:02:41.679Z,6.50
2022-08-08T02:05:23.310Z,5.25
2022-08-08T02:08:17.027Z,6.25
2022-08-08T02:10:56.188Z,5.50
2022-08-08T02:13:53.303Z,5.00
2022-08-08T02:16:28.358Z,4.00
2022-08-08T02:19:41.527Z,6.00
2022-08-08T02:22:33.899Z,5.25
2022-08-08T02:25:19.655Z,6.00
2022-08-08T02:28:01.897Z,5.00
2022-08-08T02:30:58.082Z,5.25
2022-08-08T02:34:07.906Z,5.25
2022-08-08T02:37:52.066Z,5.25
2022-08-08T02:40:09.349Z,5.25
2022-08-08T02:42:46.922Z,5.00
2022-08-08T02:45:51.827Z,5.00
2022-08-08T02:48:54.354Z,6.25
2022-08-08T02:51:30.129Z,4.75
2022-08-08T02:54:25.968Z,5.50
2022-08-08T02:57:17.045Z,5.25
2022-08-08T03:00:26.659Z,6.00
2022-08-08T03:03:08.315Z,5.50
2022-08-08T03:05:51.498Z,6.00
2022-08-08T03:08:40.702Z,6.00
2022-08-08T03:12:01.714Z,7.25
2022-08-08T03:15:56.207Z,5.75
2022-08-08T03:17:43.079Z,6.25
2022-08-08T03:20:26.570Z,6.00
2022-08-08T03:22:56.939Z,6.25
2022-08-08T03:25:35.691Z,6.75
2022-08-08T03:28:08.015Z,6.00
2022-08-08T03:30:34.911Z,8.25
2022-08-08T03:33:54.700Z,7.25
2022-08-08T03:36:10.585Z,6.00
2022-08-08T03:38:56.241Z,5.75
2022-08-08T03:42:12.563Z,6.25
2022-08-08T03:44:25.704Z,6.50
2022-08-08T03:46:52.818Z,7.50
2022-08-08T03:49:59.009Z,6.25
2022-08-08T03:52:13.956Z,5.75
2022-08-08T03:55:01.565Z,7.00
2022-08-08T03:58:29.983Z,7.50
2022-08-08T04:00:19.695Z,7.50
2022-08-08T04:03:03.466Z,7.25
2022-08-08T04:05:36.189Z,6.00
2022-08-08T04:08:07.482Z,7.25
2022-08-08T04:10:36.081Z,8.00
2022-08-08T04:13:17.383Z,7.25
2022-08-08T04:15:54.817Z,8.00
2022-08-08T04:18:31.347Z,7.00
2022-08-08T04:20:59.130Z,9.50
2022-08-08T04:23:33.414Z,8.00
2022-08-08T04:26:14.316Z,4.00
2022-08-08T04:28:41.855Z,7.25
2022-08-08T04:31:09.263Z,9.00
2022-08-08T04:33:41.539Z,8.25
2022-08-08T04:36:08.823Z,7.00
2022-08-08T04:38:35.542Z,6.25
2022-08-08T04:41:02.369Z,7.00
2022-08-08T04:43:32.360Z,9.00
2022-08-08T04:46:14.748Z,9.50
2022-08-08T04:48:41.700Z,7.00
2022-08-08T04:51:09.253Z,7.75
2022-08-08T04:54:36.254Z,6.50
2022-08-08T04:56:22.883Z,7.00
2022-08-08T04:58:50.533Z,7.25
2022-08-08T05:01:17.891Z,7.25
2022-08-08T05:04:10.456Z,7.25
2022-08-08T05:06:31.636Z,7.75
2022-08-08T05:09:02.786Z,8.25
2022-08-08T05:11:38.950Z,9.00
2022-08-08T05:14:07.074Z,9.25
2022-08-08T05:16:53.641Z,8.75
2022-08-08T05:20:10.352Z,8.25
2022-08-08T05:22:09.863Z,8.00
2022-08-08T05:24:37.794Z,7.25
2022-08-08T05:27:05.967Z,10.25
2022-08-08T05:29:35.917Z,8.25
2022-08-08T05:32:06.487Z,9.00
2022-08-08T05:34:49.264Z,7.75
2022-08-08T05:37:19.717Z,7.00
2022-08-08T05:39:57.103Z,8.00
2022-08-08T05:42:34.448Z,7.25
2022-08-08T05:45:24.828Z,8.25
2022-08-08T05:47:59.872Z,8.00
2022-08-08T05:50:30.501Z,9.25
2022-08-08T05:53:54.722Z,8.00
2022-08-08T05:56:08.319Z,8.50
2022-08-08T05:58:53.966Z,8.00
2022-08-08T06:01:56.548Z,8.00
2022-08-08T06:04:22.614Z,8.75
2022-08-08T06:06:53.212Z,8.25
2022-08-08T06:10:00.439Z,9.00
2022-08-08T06:12:14.490Z,7.75
2022-08-08T06:14:48.739Z,7.75
2022-08-08T06:17:29.160Z,8.25
2022-08-08T06:20:06.146Z,7.00
2022-08-08T06:22:42.253Z,10.00
2022-08-08T06:25:10.339Z,8.00
2022-08-08T06:27:51.206Z,9.00
2022-08-08T06:30:28.871Z,8.00
2022-08-08T06:32:57.912Z,10.25
2022-08-08T06:36:07.857Z,9.75
2022-08-08T06:38:27.584Z,8.00
2022-08-08T06:41:03.985Z,8.25
2022-08-08T06:43:35.880Z,8.00
2022-08-08T06:46:04.315Z,7.25
2022-08-08T06:48:36.052Z,7.25
2022-08-08T06:51:07.478Z,7.00
2022-08-08T06:53:39.568Z,7.75
2022-08-08T06:56:17.629Z,7.75
2022-08-08T06:58:44.300Z,7.25
2022-08-08T07:02:16.849Z,8.75
2022-08-08T07:04:37.099Z,7.25
2022-08-08T07:07:11.518Z,8.25
2022-08-08T07:09:56.302Z,8.25
2022-08-08T07:12:39.839Z,8.00
2022-08-08T07:15:15.565Z,8.25
2022-08-08T07:18:34.600Z,9.50
2022-08-08T07:20:54.289Z,5.50
2022-08-08T07:24:01.999Z,3.00
2022-08-08T07:26:32.914Z,8.00
2022-08-08T07:29:05.242Z,6.25
2022-08-08T07:31:35.282Z,7.00
2022-08-08T07:34:09.073Z,7.75
2022-08-08T07:36:48.367Z,7.50
2022-08-08T07:39:22.532Z,6.75
2022-08-08T07:42:04.543Z,7.00
2022-08-08T07:44:41.087Z,8.00
2022-08-08T07:47:10.240Z,6.25
2022-08-08T07:49:39.857Z,6.00
2022-08-08T07:52:13.423Z,7.00
2022-08-08T07:55:28.968Z,7.00
2022-08-08T07:58:02.163Z,6.75
2022-08-08T08:00:43.313Z,6.00
2022-08-08T08:03:23.446Z,5.75
2022-08-08T08:05:53.300Z,6.75
2022-08-08T08:08:26.223Z,6.25
2022-08-08T08:10:57.315Z,8.00
2022-08-08T08:14:06.324Z,6.25
2022-08-08T08:16:35.701Z,7.50
2022-08-08T08:19:06.134Z,5.00
2022-08-08T08:21:52.537Z,7.75
2022-08-08T08:24:30.793Z,7.25
2022-08-08T08:27:03.676Z,10.75
2022-08-08T08:29:30.969Z,8.00
2022-08-08T08:32:03.419Z,6.00
2022-08-08T08:34:33.661Z,8.50
2022-08-08T08:37:08.080Z,7.00
2022-08-08T08:39:59.704Z,5.50
2022-08-08T08:42:31.999Z,5.25
2022-08-08T08:45:21.031Z,6.75
2022-08-08T08:47:53.242Z,6.50
2022-08-08T08:50:33.632Z,6.25
2022-08-08T08:53:27.393Z,5.75
2022-08-08T08:56:02.160Z,7.25
2022-08-08T08:58:46.716Z,7.25
2022-08-08T09:01:20.305Z,6.25
2022-08-08T09:03:50.902Z,7.75
2022-08-08T09:06:26.088Z,6.25
2022-08-08T09:09:39.823Z,6.00
2022-08-08T09:12:16.860Z,5.50
2022-08-08T09:14:48.067Z,6.00
2022-08-08T09:17:40.694Z,5.50
2022-08-08T09:22:02.791Z,6.00
2022-08-08T09:22:58.725Z,6.00
2022-08-08T09:25:36.050Z,7.00
2022-08-08T09:28:13.101Z,5.75
2022-08-08T09:31:12.701Z,7.00
2022-08-08T09:34:15.443Z,6.00
2022-08-08T09:36:34.109Z,6.75
2022-08-08T09:39:10.150Z,5.50
2022-08-08T09:42:14.259Z,4.75
2022-08-08T09:44:47.082Z,5.75
2022-08-08T09:48:02.067Z,6.75
2022-08-08T09:50:13.600Z,5.00
2022-08-08T09:52:55.451Z,5.25
2022-08-08T09:55:51.466Z,6.00
2022-08-08T09:58:26.167Z,5.00
2022-08-08T10:01:14.435Z,6.00
2022-08-08T10:03:57.336Z,5.00
2022-08-08T10:06:29.558Z,6.50
2022-08-08T10:08:57.326Z,6.00
2022-08-08T10:12:26.624Z,5.25
2022-08-08T10:14:35.196Z,5.75
2022-08-08T10:16:59.180Z,5.00
2022-08-08T10:19:46.197Z,6.75
2022-08-08T10:22:26.407Z,6.50
2022-08-08T10:25:15.488Z,7.00
2022-08-08T10:27:44.025Z,7.75
2022-08-08T10:30:16.387Z,6.00
2022-08-08T10:33:00.841Z,6.75
2022-08-08T10:36:09.201Z,8.00
2022-08-08T10:38:20.008Z,6.75
2022-08-08T10:40:51.796Z,8.00
2022-08-08T10:43:18.716Z,6.00
2022-08-08T10:45:54.976Z,6.50
2022-08-08T10:48:57.342Z,7.00
2022-08-08T10:51:24.381Z,7.00
2022-08-08T10:53:58.927Z,6.00
2022-08-08T10:56:34.534Z,5.00
2022-08-08T10:59:05.272Z,8.00
2022-08-08T11:01:33.355Z,7.50
2022-08-08T11:04:02.696Z,7.00
2022-08-08T11:06:34.194Z,7.75
2022-08-08T11:09:15.572Z,6.25
2022-08-08T11:12:04.686Z,8.50
2022-08-08T11:14:33.733Z,7.50
2022-08-08T11:17:03.051Z,6.50
2022-08-08T11:19:33.750Z,7.25
2022-08-08T11:22:04.169Z,7.00
2022-08-08T11:24:35.794Z,6.50
2022-08-08T11:27:19.335Z,6.50
2022-08-08T11:30:04.496Z,8.00
2022-08-08T11:32:40.927Z,6.25
2022-08-08T11:35:27.226Z,6.75
2022-08-08T11:38:39.113Z,5.50
2022-08-08T11:40:48.477Z,6.00
2022-08-08T11:43:19.184Z,5.50
2022-08-08T11:46:09.798Z,6.00
2022-08-08T11:48:38.697Z,5.25
2022-08-08T11:51:30.145Z,8.25
2022-08-08T11:53:59.232Z,5.00
2022-08-08T11:56:34.526Z,7.25
2022-08-08T11:59:09.829Z,5.25
2022-08-08T12:01:37.654Z,6.50
2022-08-08T12:04:05.927Z,7.25
2022-08-08T12:06:33.967Z,6.25
2022-08-08T12:09:17.396Z,6.25
2022-08-08T12:11:46.036Z,6.00
2022-08-08T12:14:23.834Z,7.00
2022-08-08T12:16:56.055Z,6.50
2022-08-08T12:19:37.766Z,7.00
2022-08-08T12:22:13.432Z,7.00
2022-08-08T12:24:53.981Z,6.75
2022-08-08T12:27:26.691Z,6.00
2022-08-08T12:29:56.443Z,7.00
2022-08-08T12:32:23.528Z,9.00
2022-08-08T12:35:17.979Z,5.00
2022-08-08T12:38:01.645Z,8.00
2022-08-08T12:40:44.484Z,6.25
2022-08-08T12:43:49.695Z,7.50
2022-08-08T12:46:24.888Z,7.00
2022-08-08T12:49:22.220Z,5.50
2022-08-08T12:51:53.757Z,6.00
2022-08-08T12:54:33.426Z,5.50
2022-08-08T12:57:23.478Z,5.75
2022-08-08T13:00:06.248Z,6.00
2022-08-08T13:02:42.031Z,6.50
2022-08-08T13:05:26.734Z,6.00
2022-08-08T13:08:21.951Z,5.50
2022-08-08T13:10:58.274Z,5.00
2022-08-08T13:13:35.197Z,6.75
2022-08-08T13:16:19.117Z,7.00
2022-08-08T13:18:56.940Z,5.50
2022-08-08T13:21:36.296Z,4.00
2022-08-08T13:24:18.675Z,5.50
2022-08-08T13:27:05.556Z,5.00
2022-08-08T13:29:52.911Z,5.75
2022-08-08T13:32:20.936Z,5.00
2022-08-08T13:34:52.785Z,4.00
2022-08-08T13:37:28.071Z,3.75
2022-08-08T13:40:07.914Z,5.75
2022-08-08T13:42:35.116Z,4.25
2022-08-08T13:45:04.537Z,6.00
2022-08-08T13:47:31.513Z,5.00
2022-08-08T13:50:39.904Z,5.00
2022-08-08T13:52:48.233Z,5.50
2022-08-08T13:55:28.776Z,5.25
2022-08-08T13:58:07.768Z,5.00
2022-08-08T14:00:45.194Z,5.00
2022-08-08T14:03:53.582Z,4.75
2022-08-08T14:06:20.419Z,4.50
2022-08-08T14:08:58.482Z,4.25
2022-08-08T14:11:28.039Z,5.00
2022-08-08T14:13:59.595Z,4.00
2022-08-08T14:16:27.881Z,5.50
2022-08-08T14:19:01.032Z,5.75
2022-08-08T14:21:59.289Z,2.75
2022-08-08T14:24:32.549Z,3.00
2022-08-08T14:26:59.232Z,4.00
2022-08-08T14:29:30.794Z,3.75
2022-08-08T14:32:09.036Z,3.25
2022-08-08T14:34:42.406Z,4.25
2022-08-08T14:37:12.615Z,3.50
2022-08-08T14:40:06.415Z,3.00
2022-08-08T14:42:47.279Z,3.00
2022-08-08T14:45:29.141Z,5.25
2022-08-08T14:48:11.941Z,4.50
2022-08-08T14:50:43.072Z,4.75
2022-08-08T14:53:14.184Z,4.25
2022-08-08T14:55:43.284Z,4.25
2022-08-08T14:58:16.966Z,3.25
2022-08-08T15:00:48.424Z,4.00
2022-08-08T15:03:17.247Z,4.75
2022-08-08T15:05:53.907Z,4.25
2022-08-08T15:08:34.313Z,6.75
2022-08-08T15:11:04.468Z,4.25
2022-08-08T15:13:39.934Z,5.00
2022-08-08T15:16:18.789Z,4.00
2022-08-08T15:18:51.544Z,3.75
2022-08-08T15:21:19.437Z,4.75
2022-08-08T15:23:51.518Z,5.50
2022-08-08T15:26:20.397Z,5.00
2022-08-08T15:28:50.882Z,5.75
2022-08-08T15:31:55.527Z,4.25
2022-08-08T15:34:06.963Z,5.75
2022-08-08T15:36:35.694Z,5.25
2022-08-08T15:39:04.169Z,4.25
2022-08-08T15:41:37.251Z,3.25
2022-08-08T15:44:13.363Z,4.00
2022-08-08T15:46:40.587Z,3.50
2022-08-08T15:49:12.688Z,5.75
2022-08-08T15:51:43.776Z,4.00
2022-08-08T15:54:18.317Z,4.25
2022-08-08T15:56:45.746Z,4.00
2022-08-08T15:59:13.240Z,4.25
2022-08-08T16:01:40.854Z,4.00
2022-08-08T16:04:29.567Z,4.00
2022-08-08T16:06:56.864Z,6.00
2022-08-08T16:13:02.826Z,4.25
2022-08-08T16:13:13.953Z,5.00
2022-08-08T16:14:58.013Z,4.25
2022-08-08T16:17:57.735Z,5.00
2022-08-08T16:20:13.603Z,4.00
2022-08-08T16:22:41.461Z,4.25
2022-08-08T16:25:09.499Z,4.00
2022-08-08T16:27:36.831Z,4.25
2022-08-08T16:30:08.236Z,4.00
2022-08-08T16:32:40.655Z,3.75
2022-08-08T16:35:08.548Z,4.00
2022-08-08T16:37:36.291Z,2.00
2022-08-08T16:40:04.157Z,3.25
2022-08-08T16:42:31.431Z,3.00
2022-08-08T16:45:11.606Z,4.00
2022-08-08T16:47:49.658Z,3.25
2022-08-08T16:50:20.202Z,1.00
2022-08-08T16:55:02.822Z,2.00
2022-08-08T16:55:53.199Z,3.50
2022-08-08T16:58:25.727Z,4.00
2022-08-08T17:00:53.517Z,3.50
2022-08-08T17:03:25.209Z,3.00
2022-08-08T17:06:39.690Z,2.75
2022-08-08T17:08:55.307Z,3.25
2022-08-08T17:11:28.201Z,4.50
2022-08-08T17:14:05.842Z,5.00
2022-08-08T17:16:57.851Z,5.75
2022-08-08T17:19:26.782Z,4.00
2022-08-08T17:21:53.704Z,3.00
2022-08-08T17:24:27.960Z,3.25
2022-08-08T17:26:57.888Z,3.75
2022-08-08T17:29:26.449Z,4.00
2022-08-08T17:31:53.391Z,2.75
2022-08-08T17:34:53.240Z,4.00
2022-08-08T17:37:11.268Z,5.25
2022-08-08T17:40:04.163Z,4.25
2022-08-08T17:42:26.340Z,4.00
2022-08-08T17:44:53.192Z,4.00
2022-08-08T17:47:23.867Z,4.50
2022-08-08T17:50:06.512Z,3.50
2022-08-08T17:52:35.462Z,2.50
2022-08-08T17:55:09.389Z,3.75
2022-08-08T17:57:51.824Z,3.75
2022-08-08T18:00:21.300Z,4.00
2022-08-08T18:03:07.503Z,3.50
2022-08-08T18:05:48.753Z,4.00
2022-08-08T18:08:38.396Z,4.00
2022-08-08T18:11:07.304Z,3.25
2022-08-08T18:13:41.498Z,4.00
2022-08-08T18:16:09.175Z,4.25
2022-08-08T18:18:42.429Z,2.50
2022-08-08T18:21:34.926Z,4.00
2022-08-08T18:23:58.992Z,4.25
2022-08-08T18:26:28.099Z,4.50
2022-08-08T18:28:56.163Z,3.25
2022-08-08T18:31:24.948Z,5.00
2022-08-08T18:34:11.221Z,4.25
2022-08-08T18:36:41.305Z,4.25
2022-08-08T18:39:11.555Z,4.00
2022-08-08T18:42:01.097Z,4.25
2022-08-08T18:44:30.280Z,4.25
2022-08-08T18:47:00.172Z,4.25
2022-08-08T18:49:32.725Z,4.50
2022-08-08T18:52:18.337Z,5.25
2022-08-08T18:54:45.439Z,4.50
2022-08-08T18:57:26.606Z,5.00
2022-08-08T18:59:53.251Z,5.00
2022-08-08T19:02:27.309Z,4.00
2022-08-08T19:04:56.058Z,4.25
2022-08-08T19:07:30.039Z,5.00
2022-08-08T19:10:14.823Z,4.75
2022-08-08T19:12:44.803Z,5.50
2022-08-08T19:15:21.785Z,4.00
2022-08-08T19:18:31.772Z,5.00
2022-08-08T19:20:39.372Z,4.00
2022-08-08T19:23:07.897Z,5.00
2022-08-08T19:26:01.610Z,6.50
2022-08-08T19:28:23.396Z,6.25
2022-08-08T19:31:04.303Z,7.00
2022-08-08T19:33:51.613Z,6.00
2022-08-08T19:36:25.334Z,6.00
2022-08-08T19:38:56.234Z,6.00
2022-08-08T19:41:30.867Z,6.75
2022-08-08T19:44:03.948Z,5.25
2022-08-08T19:46:33.709Z,6.00
2022-08-08T19:49:04.017Z,7.75
2022-08-08T19:51:34.081Z,5.25
2022-08-08T19:54:01.032Z,6.00
2022-08-08T19:56:40.577Z,6.00
2022-08-08T19:59:09.111Z,6.50
2022-08-08T20:02:01.693Z,6.00
2022-08-08T20:04:23.871Z,7.00
2022-08-08T20:06:50.757Z,7.00
2022-08-08T20:09:22.974Z,7.50
2022-08-08T20:11:52.072Z,9.00
2022-08-08T20:14:34.137Z,8.00
2022-08-08T20:17:02.992Z,7.75
2022-08-08T20:19:33.425Z,6.75
2022-08-08T20:22:03.225Z,7.25
2022-08-08T20:24:32.406Z,9.75
2022-08-08T20:27:01.890Z,8.00
2022-08-08T20:29:55.984Z,8.75
2022-08-08T20:32:15.175Z,6.50
2022-08-08T20:34:47.567Z,6.25
2022-08-08T20:37:14.644Z,7.75
2022-08-08T20:39:51.862Z,7.25
2022-08-08T20:42:28.598Z,8.00
2022-08-08T20:44:56.740Z,7.00
2022-08-08T20:47:24.029Z,7.25
2022-08-08T20:49:54.583Z,7.25
2022-08-08T20:52:26.156Z,6.50
2022-08-08T20:54:52.858Z,7.75
2022-08-08T20:57:21.012Z,8.00
2022-08-08T20:59:48.154Z,8.50
2022-08-08T21:02:25.231Z,8.25
2022-08-08T21:05:01.118Z,9.50
2022-08-08T21:07:46.885Z,8.00
2022-08-08T21:10:17.160Z,10.00
2022-08-08T21:12:46.315Z,9.75
2022-08-08T21:16:05.545Z,9.25
2022-08-08T21:18:06.159Z,6.25
2022-08-08T21:20:34.828Z,9.50
2022-08-08T21:23:08.925Z,10.50
2022-08-08T21:25:36.798Z,8.50
2022-08-08T21:28:15.951Z,11.75
2022-08-08T21:30:49.636Z,9.75
2022-08-08T21:33:18.962Z,10.75
2022-08-08T21:36:19.182Z,9.00
2022-08-08T21:38:32.552Z,10.50
2022-08-08T21:40:59.175Z,10.25
2022-08-08T21:43:30.983Z,11.25
2022-08-08T21:48:08.618Z,10.00
2022-08-08T21:48:49.357Z,10.25
2022-08-08T21:51:20.550Z,10.50
2022-08-08T21:54:35.834Z,9.25
2022-08-08T21:56:53.991Z,11.00
2022-08-08T21:59:20.951Z,9.00
2022-08-08T22:01:52.400Z,9.00
2022-08-08T22:04:22.283Z,9.00
2022-08-08T22:06:51.593Z,9.00
2022-08-08T22:09:18.673Z,12.50
2022-08-08T22:12:02.396Z,10.50
2022-08-08T22:14:33.840Z,11.25
2022-08-08T22:17:01.413Z,8.75
2022-08-08T22:19:29.930Z,12.50
2022-08-08T22:22:16.453Z,10.25
2022-08-08T22:24:44.651Z,10.25
2022-08-08T22:27:11.500Z,11.25
2022-08-08T22:29:59.127Z,9.75
2022-08-08T22:32:28.563Z,11.50
2022-08-08T22:34:55.195Z,11.75
2022-08-08T22:37:49.487Z,13.50
2022-08-08T22:40:16.478Z,13.50
2022-08-08T22:42:43.476Z,9.75
2022-08-08T22:45:14.711Z,10.75
2022-08-08T22:47:46.710Z,12.00
2022-08-08T22:50:26.432Z,12.75
2022-08-08T22:54:32.762Z,14.00
2022-08-08T22:56:01.487Z,11.25
2022-08-08T22:58:34.248Z,12.25
2022-08-08T23:02:01.030Z,11.75
2022-08-08T23:03:55.486Z,14.50
2022-08-08T23:06:24.620Z,12.50
2022-08-08T23:08:55.305Z,13.25
2022-08-08T23:11:30.870Z,11.75
2022-08-08T23:14:11.879Z,13.50
2022-08-08T23:16:46.262Z,12.25
2022-08-08T23:19:16.207Z,13.00
2022-08-08T23:21:45.682Z,11.75
2022-08-08T23:24:13.687Z,11.75
2022-08-08T23:26:55.374Z,12.00
2022-08-08T23:29:24.881Z,10.75
2022-08-08T23:31:52.010Z,9.00
2022-08-08T23:34:19.560Z,11.25
2022-08-08T23:36:47.433Z,9.25
2022-08-08T23:39:14.638Z,9.75
2022-08-08T23:41:46.770Z,10.00
2022-08-08T23:44:18.612Z,8.50
2022-08-08T23:49:04.615Z,7.00
2022-08-08T23:49:35.554Z,6.25
2022-08-08T23:52:07.191Z,7.50
2022-08-08T23:54:52.095Z,7.25
2022-08-08T23:57:38.602Z,6.00
